createdAt,value
2018-03-15T00:00:45.249Z,25.88
2018-03-15T00:03:19.231Z,27.80
2018-03-15T00:05:46.735Z,23.08
2018-03-15T00:08:14.211Z,31.23
2018-03-15T00:10:41.717Z,23.23
2018-03-15T00:13:09.225Z,30.45
2018-03-15T00:15:37.459Z,27.73
2018-03-15T00:18:04.950Z,26.27
2018-03-15T00:20:33.173Z,35.15
2018-03-15T00:23:00.716Z,40.33
2018-03-15T00:25:28.252Z,39.92
2018-03-15T00:27:55.700Z,33.20
2018-03-15T00:30:23.958Z,37.22
2018-03-15T00:32:53.004Z,37.75
2018-03-15T00:35:21.242Z,43.75
2018-03-15T00:37:48.728Z,40.50
2018-03-15T00:40:16.999Z,41.85
2018-03-15T00:42:45.235Z,42.10
2018-03-15T00:45:12.754Z,45.63
2018-03-15T00:47:40.246Z,49.67
2018-03-15T00:50:07.729Z,52.35
2018-03-15T00:52:35.203Z,46.00
2018-03-15T00:55:03.619Z,41.92
2018-03-15T00:57:31.119Z,41.63
2018-03-15T00:59:58.595Z,48.25
2018-03-15T01:02:26.852Z,47.60
2018-03-15T01:04:54.347Z,54.42
2018-03-15T01:07:21.850Z,43.85
2018-03-15T01:09:49.322Z,45.22
2018-03-15T01:12:16.818Z,44.47
2018-03-15T01:14:44.324Z,43.45
2018-03-15T01:17:11.829Z,48.30
2018-03-15T01:19:40.202Z,43.45
2018-03-15T01:22:08.442Z,48.05
2018-03-15T01:24:35.950Z,49.03
2018-03-15T01:27:04.216Z,46.58
2018-03-15T01:29:32.474Z,48.20
2018-03-15T01:31:59.969Z,43.85
2018-03-15T01:34:28.240Z,45.70
2018-03-15T01:36:56.486Z,49.85
2018-03-15T01:39:23.996Z,46.25
2018-03-15T01:41:51.564Z,48.35
2018-03-15T01:44:19.022Z,43.92
2018-03-15T01:46:46.525Z,42.05
2018-03-15T01:49:14.015Z,46.58
2018-03-15T01:51:41.529Z,48.83
2018-03-15T01:54:09.015Z,45.38
2018-03-15T01:56:37.282Z,43.33
2018-03-15T01:59:04.775Z,43.95
2018-03-15T02:01:32.245Z,47.13
2018-03-15T02:03:59.738Z,46.47
2018-03-15T02:06:27.199Z,48.85
2018-03-15T02:08:54.709Z,49.22
2018-03-15T02:11:22.187Z,44.85
2018-03-15T02:13:49.679Z,37.05
2018-03-15T02:16:17.138Z,46.33
2018-03-15T02:18:45.410Z,43.63
2018-03-15T02:21:12.888Z,43.22
2018-03-15T02:23:40.386Z,39.53
2018-03-15T02:26:07.860Z,46.08
2018-03-15T02:28:35.356Z,44.65
2018-03-15T02:31:02.832Z,42.30
2018-03-15T02:33:31.083Z,36.38
2018-03-15T02:35:58.592Z,43.10
2018-03-15T02:38:26.157Z,40.83
2018-03-15T02:40:53.671Z,43.90
2018-03-15T02:43:21.147Z,43.87
2018-03-15T02:45:49.400Z,44.65
2018-03-15T02:48:16.904Z,45.72
2018-03-15T02:50:44.378Z,42.30
2018-03-15T02:53:11.885Z,46.70
2018-03-15T02:55:39.364Z,47.33
2018-03-15T02:58:07.621Z,44.92
2018-03-15T03:00:35.138Z,47.67
2018-03-15T03:03:02.607Z,41.92
2018-03-15T03:05:30.111Z,48.30
2018-03-15T03:07:58.342Z,48.53
2018-03-15T03:10:25.834Z,47.78
2018-03-15T03:12:53.311Z,47.72
2018-03-15T03:15:22.318Z,44.00
2018-03-15T03:17:49.794Z,47.20
2018-03-15T03:20:17.263Z,45.88
2018-03-15T03:22:44.763Z,46.05
2018-03-15T03:25:12.231Z,41.25
2018-03-15T03:27:40.514Z,44.75
2018-03-15T03:30:08.781Z,41.95
2018-03-15T03:32:37.072Z,45.15
2018-03-15T03:35:05.323Z,47.08
2018-03-15T03:37:32.839Z,43.38
2018-03-15T03:40:00.320Z,45.80
2018-03-15T03:42:27.814Z,50.40
2018-03-15T03:44:56.093Z,49.10
2018-03-15T03:47:24.335Z,45.25
2018-03-15T03:49:51.836Z,40.30
2018-03-15T03:52:20.071Z,48.55
2018-03-15T03:54:47.584Z,41.15
2018-03-15T03:57:15.059Z,46.80
2018-03-15T03:59:43.177Z,55.67
2018-03-15T04:02:10.692Z,56.15
2018-03-15T04:04:38.171Z,58.70
2018-03-15T04:07:05.664Z,49.13
2018-03-15T04:09:33.942Z,46.53
2018-03-15T04:12:01.410Z,46.63
2018-03-15T04:14:29.660Z,48.38
2018-03-15T04:16:57.962Z,44.75
2018-03-15T04:19:26.211Z,52.75
2018-03-15T04:21:53.728Z,48.03
2018-03-15T04:24:21.202Z,50.40
2018-03-15T04:26:48.675Z,50.53
2018-03-15T04:29:16.168Z,45.88
2018-03-15T04:31:44.410Z,44.40
2018-03-15T04:34:11.902Z,50.40
2018-03-15T04:36:40.140Z,60.90
2018-03-15T04:39:07.645Z,62.38
2018-03-15T04:41:35.906Z,49.72
2018-03-15T04:44:03.449Z,55.95
2018-03-15T04:46:30.947Z,54.85
2018-03-15T04:48:59.190Z,59.53
2018-03-15T04:51:26.707Z,60.05
2018-03-15T04:53:54.219Z,53.67
2018-03-15T04:56:21.714Z,56.17
2018-03-15T04:58:49.213Z,58.95
2018-03-15T05:01:16.703Z,59.03
2018-03-15T05:03:45.000Z,54.95
2018-03-15T05:06:13.249Z,56.92
2018-03-15T05:08:41.507Z,61.22
2018-03-15T05:11:08.976Z,58.92
2018-03-15T05:13:36.459Z,55.28
2018-03-15T05:16:04.732Z,59.55
2018-03-15T05:18:33.008Z,53.15
2018-03-15T05:21:01.281Z,59.05
2018-03-15T05:23:28.746Z,59.63
2018-03-15T05:25:57.021Z,53.60
2018-03-15T05:28:25.271Z,59.80
2018-03-15T05:30:52.777Z,60.28
2018-03-15T05:33:20.262Z,58.80
2018-03-15T05:35:47.772Z,57.80
2018-03-15T05:38:16.074Z,58.25
2018-03-15T05:40:43.548Z,56.15
2018-03-15T05:43:11.062Z,62.45
2018-03-15T05:45:39.302Z,57.50
2018-03-15T05:48:06.812Z,60.05
2018-03-15T05:50:35.077Z,55.75
2018-03-15T05:53:03.389Z,59.25
2018-03-15T05:55:30.893Z,63.10
2018-03-15T05:57:58.394Z,64.80
2018-03-15T06:00:25.901Z,64.10
2018-03-15T06:02:53.403Z,60.42
2018-03-15T06:05:21.668Z,61.55
2018-03-15T06:07:49.920Z,62.85
2018-03-15T06:10:17.435Z,67.68
2018-03-15T06:12:44.934Z,69.70
2018-03-15T06:15:12.435Z,68.97
2018-03-15T06:17:40.682Z,59.65
2018-03-15T06:20:08.175Z,64.50
2018-03-15T06:22:36.447Z,64.80
2018-03-15T06:25:04.692Z,62.28
2018-03-15T06:27:32.220Z,65.78
2018-03-15T06:29:59.686Z,64.12
2018-03-15T06:32:27.187Z,54.65
2018-03-15T06:34:54.699Z,56.50
2018-03-15T06:37:22.195Z,61.88
2018-03-15T06:39:49.666Z,58.53
2018-03-15T06:42:17.929Z,52.62
2018-03-15T06:44:45.468Z,56.50
2018-03-15T06:47:12.936Z,55.10
2018-03-15T06:49:40.429Z,56.58
2018-03-15T06:52:07.917Z,57.42
2018-03-15T06:54:35.426Z,52.40
2018-03-15T06:57:02.916Z,60.85
2018-03-15T06:59:30.414Z,65.72
2018-03-15T07:01:57.940Z,64.70
2018-03-15T07:04:25.463Z,65.32
2018-03-15T07:06:52.923Z,55.20
2018-03-15T07:09:21.160Z,54.60
2018-03-15T07:11:48.687Z,61.00
2018-03-15T07:14:16.161Z,61.67
2018-03-15T07:16:43.636Z,59.63
2018-03-15T07:19:11.135Z,55.80
2018-03-15T07:21:39.402Z,59.05
2018-03-15T07:24:08.406Z,61.00
2018-03-15T07:26:36.642Z,51.55
2018-03-15T07:29:04.131Z,56.40
2018-03-15T07:31:31.605Z,52.50
2018-03-15T07:33:59.883Z,61.15
2018-03-15T07:36:28.182Z,51.15
2018-03-15T07:38:55.684Z,55.40
2018-03-15T07:41:23.189Z,49.78
2018-03-15T07:43:51.446Z,61.65
2018-03-15T07:46:18.951Z,59.08
2018-03-15T07:48:46.423Z,55.90
2018-03-15T07:51:13.932Z,62.25
2018-03-15T07:53:42.201Z,66.00
2018-03-15T07:56:09.723Z,51.05
2018-03-15T07:58:37.228Z,60.05
2018-03-15T08:01:05.490Z,41.92
2018-03-15T08:03:33.001Z,54.63
2018-03-15T08:06:00.496Z,49.03
2018-03-15T08:08:28.008Z,50.50
2018-03-15T08:10:55.478Z,46.72
2018-03-15T08:13:22.953Z,50.50
2018-03-15T08:15:50.452Z,63.83
2018-03-15T08:18:18.695Z,60.20
2018-03-15T08:20:46.200Z,50.63
2018-03-15T08:23:14.455Z,54.92
2018-03-15T08:25:41.976Z,48.70
2018-03-15T08:28:09.458Z,49.50
2018-03-15T08:30:36.951Z,46.53
2018-03-15T08:33:05.225Z,53.70
2018-03-15T08:35:33.526Z,46.15
2018-03-15T08:38:01.014Z,50.90
2018-03-15T08:40:28.511Z,52.55
2018-03-15T08:42:56.774Z,49.20
2018-03-15T08:45:24.235Z,50.35
2018-03-15T08:47:51.740Z,51.15
2018-03-15T08:50:19.228Z,46.33
2018-03-15T08:52:46.727Z,46.25
2018-03-15T08:55:14.971Z,47.95
2018-03-15T08:57:42.475Z,45.60
2018-03-15T09:00:10.749Z,40.33
2018-03-15T09:02:39.003Z,43.47
2018-03-15T09:05:06.520Z,41.40
2018-03-15T09:07:34.031Z,39.13
2018-03-15T09:10:02.374Z,33.53
2018-03-15T09:12:29.879Z,44.60
2018-03-15T09:14:58.151Z,34.63
2018-03-15T09:17:26.423Z,42.47
2018-03-15T09:19:54.694Z,36.60
2018-03-15T09:22:22.167Z,36.45
2018-03-15T09:24:50.426Z,35.60
2018-03-15T09:27:17.926Z,39.72
2018-03-15T09:29:45.435Z,36.92
2018-03-15T09:32:12.933Z,35.95
2018-03-15T09:34:40.434Z,31.92
2018-03-15T09:37:07.920Z,33.95
2018-03-15T09:39:36.213Z,33.13
2018-03-15T09:42:04.458Z,35.25
2018-03-15T09:44:31.977Z,31.48
2018-03-15T09:46:59.471Z,30.60
2018-03-15T09:49:26.969Z,37.58
2018-03-15T09:51:54.492Z,31.70
2018-03-15T09:54:21.985Z,34.08
2018-03-15T09:56:50.251Z,33.10
2018-03-15T09:59:18.499Z,30.77
2018-03-15T10:01:46.046Z,33.55
2018-03-15T10:04:13.533Z,32.45
2018-03-15T10:06:41.061Z,30.02
2018-03-15T10:09:08.558Z,37.03
2018-03-15T10:11:36.822Z,35.22
2018-03-15T10:14:04.348Z,30.98
2018-03-15T10:16:31.823Z,31.87
2018-03-15T10:18:59.345Z,34.88
2018-03-15T10:21:26.828Z,34.10
2018-03-15T10:23:54.320Z,34.05
2018-03-15T10:26:23.380Z,38.72
2018-03-15T10:28:50.915Z,34.40
2018-03-15T10:31:18.404Z,32.72
2018-03-15T10:33:45.907Z,34.35
2018-03-15T10:36:14.182Z,30.83
2018-03-15T10:38:42.434Z,32.08
2018-03-15T10:41:10.710Z,31.83
2018-03-15T10:43:38.219Z,35.65
2018-03-15T10:46:05.826Z,28.08
2018-03-15T10:48:33.306Z,33.88
2018-03-15T10:51:00.771Z,47.03
2018-03-15T10:53:29.071Z,35.38
2018-03-15T10:55:56.559Z,30.08
2018-03-15T10:58:24.105Z,37.85
2018-03-15T11:00:57.341Z,31.85
2018-03-15T11:06:35.564Z,25.48
2018-03-15T11:09:03.092Z,29.63
2018-03-15T11:11:30.584Z,30.42
2018-03-15T11:13:58.124Z,29.65
2018-03-15T11:16:25.615Z,30.33
2018-03-15T11:18:53.222Z,30.85
2018-03-15T11:21:20.723Z,30.88
2018-03-15T11:23:48.282Z,27.08
2018-03-15T11:26:15.689Z,29.23
2018-03-15T11:28:43.200Z,27.90
2018-03-15T11:31:10.693Z,27.65
2018-03-15T11:33:38.939Z,28.38
2018-03-15T11:36:06.486Z,27.90
2018-03-15T11:38:33.970Z,22.95
2018-03-15T11:41:01.588Z,25.88
2018-03-15T11:43:29.128Z,28.90
2018-03-15T11:45:56.622Z,31.33
2018-03-15T11:48:24.132Z,27.92
2018-03-15T11:50:53.188Z,28.55
2018-03-15T11:53:20.714Z,27.92
2018-03-15T11:55:48.194Z,31.90
2018-03-15T11:58:15.686Z,26.10
2018-03-15T12:00:43.959Z,29.58
2018-03-15T12:03:12.229Z,26.85
2018-03-15T12:05:41.279Z,29.98
2018-03-15T12:08:08.780Z,26.95
2018-03-15T12:10:37.052Z,23.75
2018-03-15T12:13:04.543Z,22.33
2018-03-15T12:15:32.797Z,28.52
2018-03-15T12:18:00.339Z,23.83
2018-03-15T12:20:27.902Z,24.83
2018-03-15T12:22:55.409Z,23.98
2018-03-15T12:25:23.639Z,21.58
2018-03-15T12:27:51.171Z,22.80
2018-03-15T12:30:18.737Z,26.23
2018-03-15T12:32:46.261Z,23.02
2018-03-15T12:35:14.495Z,25.95
2018-03-15T12:37:41.990Z,21.33
2018-03-15T12:40:10.253Z,24.17
2018-03-15T12:42:37.774Z,22.60
2018-03-15T12:45:05.249Z,20.42
2018-03-15T12:47:32.743Z,22.37
2018-03-15T12:50:00.242Z,17.12
2018-03-15T12:52:27.738Z,23.25
2018-03-15T12:54:55.205Z,25.08
2018-03-15T12:57:23.516Z,21.27
2018-03-15T12:59:50.959Z,19.37
2018-03-15T13:02:18.459Z,17.83
2018-03-15T13:04:45.940Z,20.10
2018-03-15T13:07:13.443Z,20.70
2018-03-15T13:09:41.803Z,21.30
2018-03-15T13:12:10.063Z,20.63
2018-03-15T13:14:37.558Z,20.63
2018-03-15T13:17:05.064Z,21.47
2018-03-15T13:19:32.538Z,20.25
2018-03-15T13:22:00.048Z,21.33
2018-03-15T13:24:27.553Z,19.65
2018-03-15T13:26:55.068Z,19.60
2018-03-15T13:29:23.328Z,20.10
2018-03-15T13:31:50.807Z,19.37
2018-03-15T13:34:18.308Z,19.55
2018-03-15T13:36:45.800Z,20.50
2018-03-15T13:39:13.346Z,19.48
2018-03-15T13:41:40.819Z,17.58
2018-03-15T13:44:08.350Z,21.23
2018-03-15T13:46:36.640Z,20.08
2018-03-15T13:49:04.882Z,21.15
2018-03-15T13:51:32.375Z,20.35
2018-03-15T13:54:00.641Z,17.93
2018-03-15T13:56:28.906Z,16.58
2018-03-15T13:58:56.395Z,14.43
2018-03-15T14:01:24.664Z,21.37
2018-03-15T14:03:52.909Z,18.63
2018-03-15T14:06:20.421Z,14.57
2018-03-15T14:08:47.938Z,18.20
2018-03-15T14:11:15.390Z,20.10
2018-03-15T14:13:42.891Z,16.37
2018-03-15T14:16:11.322Z,18.30
2018-03-15T14:18:39.243Z,16.55
2018-03-15T14:21:06.747Z,14.97
2018-03-15T14:23:34.239Z,15.93
2018-03-15T14:26:02.499Z,16.80
2018-03-15T14:28:29.984Z,20.57
2018-03-15T14:30:58.231Z,16.10
2018-03-15T14:33:25.748Z,15.50
2018-03-15T14:35:53.262Z,17.53
2018-03-15T14:38:20.760Z,15.33
2018-03-15T14:40:48.239Z,17.87
2018-03-15T14:43:15.755Z,16.90
2018-03-15T14:45:44.028Z,14.53
2018-03-15T14:48:12.266Z,16.30
2018-03-15T14:50:39.783Z,17.30
2018-03-15T14:53:07.935Z,14.70
2018-03-15T14:55:36.214Z,16.53
2018-03-15T14:58:04.438Z,17.33
2018-03-15T15:00:31.941Z,16.80
2018-03-15T15:03:00.222Z,13.33
2018-03-15T15:05:28.498Z,14.47
2018-03-15T15:07:56.739Z,15.30
2018-03-15T15:10:24.269Z,17.07
2018-03-15T15:12:51.767Z,13.40
2018-03-15T15:15:19.251Z,16.63
2018-03-15T15:17:47.493Z,12.47
2018-03-15T15:20:15.023Z,13.47
2018-03-15T15:22:42.526Z,15.50
2018-03-15T15:25:10.002Z,14.57
2018-03-15T15:27:38.255Z,12.33
2018-03-15T15:30:05.758Z,15.27
2018-03-15T15:32:34.045Z,11.33
2018-03-15T15:35:01.527Z,13.27
2018-03-15T15:37:29.038Z,15.33
2018-03-15T15:39:57.290Z,13.30
2018-03-15T15:42:24.770Z,13.77
2018-03-15T15:44:53.028Z,14.07
2018-03-15T15:47:20.547Z,14.50
2018-03-15T15:49:48.041Z,17.83
2018-03-15T15:52:15.563Z,14.30
2018-03-15T15:54:43.048Z,13.33
2018-03-15T15:57:10.542Z,12.33
2018-03-15T15:59:38.810Z,10.40
2018-03-15T16:02:07.078Z,13.20
2018-03-15T16:04:34.594Z,12.80
2018-03-15T16:07:02.068Z,12.50
2018-03-15T16:09:29.580Z,15.67
2018-03-15T16:11:57.821Z,11.50
2018-03-15T16:14:25.348Z,13.17
2018-03-15T16:16:52.823Z,15.70
2018-03-15T16:19:20.337Z,12.70
2018-03-15T16:21:48.580Z,11.77
2018-03-15T16:24:16.099Z,12.90
2018-03-15T16:26:43.591Z,18.17
2018-03-15T16:29:11.089Z,15.35
2018-03-15T16:31:39.376Z,15.67
2018-03-15T16:34:06.867Z,11.77
2018-03-15T16:36:34.369Z,16.23
2018-03-15T16:39:02.629Z,12.37
2018-03-15T16:41:30.130Z,16.33
2018-03-15T16:43:57.629Z,15.90
2018-03-15T16:46:25.139Z,16.43
2018-03-15T16:48:52.678Z,11.80
2018-03-15T16:51:20.180Z,12.70
2018-03-15T16:53:47.710Z,11.30
2018-03-15T16:56:15.958Z,12.70
2018-03-15T16:58:43.692Z,15.50
2018-03-15T17:01:11.216Z,11.10
2018-03-15T17:03:39.318Z,14.73
2018-03-15T17:06:06.802Z,10.20
2018-03-15T17:08:34.342Z,11.37
2018-03-15T17:11:01.849Z,12.03
2018-03-15T17:13:30.103Z,12.73
2018-03-15T17:15:57.607Z,13.60
2018-03-15T17:18:25.134Z,14.15
2018-03-15T17:20:52.667Z,14.93
2018-03-15T17:23:20.170Z,10.38
2018-03-15T17:25:48.447Z,12.18
2018-03-15T17:28:16.709Z,13.20
2018-03-15T17:30:44.227Z,11.47
2018-03-15T17:33:11.727Z,11.63
2018-03-15T17:35:40.012Z,11.93
2018-03-15T17:38:08.298Z,12.53
2018-03-15T17:40:36.570Z,10.63
2018-03-15T17:43:04.831Z,11.50
2018-03-15T17:45:33.072Z,12.50
2018-03-15T17:48:00.563Z,11.53
2018-03-15T17:50:28.046Z,11.70
2018-03-15T17:52:56.320Z,14.80
2018-03-15T17:55:24.561Z,13.63
2018-03-15T17:57:52.060Z,12.63
2018-03-15T18:00:20.298Z,14.52
2018-03-15T18:02:47.843Z,12.83
2018-03-15T18:05:15.332Z,16.17
2018-03-15T18:07:42.842Z,12.02
2018-03-15T18:10:10.332Z,12.20
2018-03-15T18:12:37.856Z,17.30
2018-03-15T18:15:05.342Z,15.37
2018-03-15T18:17:32.871Z,12.60
2018-03-15T18:20:00.361Z,11.50
2018-03-15T18:22:27.846Z,12.25
2018-03-15T18:24:55.369Z,12.77
2018-03-15T18:27:22.856Z,11.63
2018-03-15T18:29:50.363Z,15.32
2018-03-15T18:32:17.890Z,15.10
2018-03-15T18:34:45.410Z,15.30
2018-03-15T18:37:12.920Z,17.37
2018-03-15T18:39:41.946Z,12.60
2018-03-15T18:42:09.468Z,14.77
2018-03-15T18:44:37.732Z,13.25
2018-03-15T18:47:06.032Z,12.50
2018-03-15T18:49:34.300Z,16.03
2018-03-15T18:52:02.544Z,17.23
2018-03-15T18:54:30.091Z,16.83
2018-03-15T18:56:57.577Z,19.55
2018-03-15T18:59:25.060Z,15.90
2018-03-15T19:01:53.335Z,13.75
2018-03-15T19:04:21.644Z,15.02
2018-03-15T19:06:49.882Z,16.80
2018-03-15T19:09:18.140Z,13.48
2018-03-15T19:11:45.664Z,13.82
2018-03-15T19:14:13.150Z,13.87
2018-03-15T19:16:40.630Z,16.70
2018-03-15T19:19:08.948Z,15.90
2018-03-15T19:21:36.414Z,13.43
2018-03-15T19:24:03.934Z,17.52
2018-03-15T19:26:32.188Z,16.62
2018-03-15T19:29:00.493Z,15.48
2018-03-15T19:31:27.989Z,12.95
2018-03-15T19:33:55.518Z,18.30
2018-03-15T19:36:23.770Z,16.92
2018-03-15T19:38:51.284Z,21.00
2018-03-15T19:41:18.789Z,21.52
2018-03-15T19:43:46.306Z,23.60
2018-03-15T19:46:13.802Z,21.00
2018-03-15T19:48:42.088Z,25.25
2018-03-15T19:51:09.571Z,26.08
2018-03-15T19:53:37.081Z,19.02
2018-03-15T19:56:04.572Z,19.30
2018-03-15T19:58:32.859Z,20.00
2018-03-15T20:01:01.100Z,18.50
2018-03-15T20:03:28.589Z,18.35
2018-03-15T20:05:56.866Z,15.13
2018-03-15T20:08:24.363Z,15.73
2018-03-15T20:10:51.874Z,16.27
2018-03-15T20:13:20.146Z,16.30
2018-03-15T20:15:49.170Z,15.82
2018-03-15T20:18:16.659Z,15.88
2018-03-15T20:20:44.185Z,19.83
2018-03-15T20:23:17.296Z,17.80
2018-03-15T20:25:44.789Z,13.50
2018-03-15T20:28:18.091Z,12.30
2018-03-15T20:30:45.591Z,14.05
2018-03-15T20:33:18.955Z,14.77
2018-03-15T20:35:47.223Z,12.35
2018-03-15T20:38:14.760Z,12.60
2018-03-15T20:40:47.912Z,13.20
2018-03-15T20:43:15.422Z,14.27
2018-03-15T20:45:48.673Z,12.93
2018-03-15T20:48:21.942Z,13.80
2018-03-15T20:50:50.275Z,18.33
2018-03-15T20:53:17.750Z,18.25
2018-03-15T20:55:45.248Z,12.07
2018-03-15T20:58:12.775Z,14.18
2018-03-15T21:00:40.251Z,15.50
2018-03-15T21:03:08.530Z,17.10
2018-03-15T21:05:36.838Z,13.98
2018-03-15T21:08:04.335Z,17.45
2018-03-15T21:10:31.811Z,29.77
2018-03-15T21:12:59.301Z,38.00
2018-03-15T21:15:26.796Z,45.95
2018-03-15T21:17:54.322Z,25.77
2018-03-15T21:20:22.599Z,25.40
2018-03-15T21:22:50.100Z,26.55
2018-03-15T21:25:17.588Z,14.35
2018-03-15T21:27:45.108Z,14.07
2018-03-15T21:30:12.620Z,11.38
2018-03-15T21:32:40.900Z,16.30
2018-03-15T21:35:09.176Z,14.40
2018-03-15T21:37:37.470Z,16.58
2018-03-15T21:40:04.959Z,14.95
2018-03-15T21:42:32.478Z,20.90
2018-03-15T21:45:00.763Z,15.80
2018-03-15T21:47:29.021Z,24.27
2018-03-15T21:49:57.291Z,16.90
2018-03-15T21:52:24.755Z,21.98
2018-03-15T21:54:53.043Z,22.17
2018-03-15T21:57:21.295Z,22.20
2018-03-15T21:59:48.751Z,18.95
2018-03-15T22:02:16.252Z,12.55
2018-03-15T22:04:43.745Z,19.42
2018-03-15T22:07:11.240Z,17.92
2018-03-15T22:09:39.708Z,16.27
2018-03-15T22:12:08.718Z,18.48
2018-03-15T22:14:36.965Z,16.67
2018-03-15T22:17:04.477Z,17.30
2018-03-15T22:19:31.970Z,15.40
2018-03-15T22:21:59.459Z,14.38
2018-03-15T22:24:26.989Z,18.70
2018-03-15T22:26:54.501Z,22.45
2018-03-15T22:29:22.793Z,30.85
2018-03-15T22:31:50.290Z,20.83
2018-03-15T22:34:17.772Z,19.92
2018-03-15T22:36:45.299Z,22.65
2018-03-15T22:39:12.800Z,25.85
2018-03-15T22:41:40.323Z,22.98
2018-03-15T22:44:07.799Z,27.33
2018-03-15T22:46:35.330Z,20.58
2018-03-15T22:49:02.798Z,18.30
2018-03-15T22:51:30.296Z,16.75
2018-03-15T22:53:58.550Z,20.48
2018-03-15T22:56:26.045Z,20.30
2018-03-15T22:58:54.279Z,25.92
2018-03-15T23:01:21.791Z,17.85
2018-03-15T23:03:49.268Z,22.83
2018-03-15T23:06:16.781Z,26.80
2018-03-15T23:08:44.294Z,22.60
2018-03-15T23:11:11.779Z,18.42
2018-03-15T23:13:39.368Z,25.08
2018-03-15T23:16:06.774Z,20.60
2018-03-15T23:18:34.313Z,22.45
2018-03-15T23:21:01.784Z,21.80
2018-03-15T23:23:29.278Z,21.55
2018-03-15T23:25:56.748Z,22.13
2018-03-15T23:28:24.294Z,23.38
2018-03-15T23:30:51.808Z,20.83
2018-03-15T23:33:19.287Z,18.60
2018-03-15T23:35:46.797Z,19.40
2018-03-15T23:38:15.032Z,23.67
2018-03-15T23:40:42.539Z,22.83
2018-03-15T23:43:10.787Z,20.40
2018-03-15T23:45:38.318Z,19.45
2018-03-15T23:48:05.790Z,23.15
2018-03-15T23:50:33.285Z,28.90
2018-03-15T23:53:01.514Z,23.35
2018-03-15T23:55:29.021Z,20.83
2018-03-15T23:57:57.275Z,25.15
